sensor_id;sensor_type;location;lat;lon;timestamp;pressure;altitude;pressure_sealevel;temperature;humidity
48846;BME280;34665;51.886;5.436;2023-03-31T00:00:03;100191.81;;;19.04;100.00
48846;BME280;34665;51.886;5.436;2023-03-31T00:02:35;100187.78;;;19.33;100.00
48846;BME280;34665;51.886;5.436;2023-03-31T00:05:01;100186.94;;;19.01;100.00
48846;BME280;34665;51.886;5.436;2023-03-31T00:07:26;100181.66;;;20.40;93.96
48846;BME280;34665;51.886;5.436;2023-03-31T00:09:52;100165.84;;;19.40;97.88
48846;BME280;34665;51.886;5.436;2023-03-31T00:12:20;100162.81;;;19.20;100.00
48846;BME280;34665;51.886;5.436;2023-03-31T00:14:46;100153.34;;;19.08;100.00
48846;BME280;34665;51.886;5.436;2023-03-31T00:17:11;100158.06;;;18.54;100.00
48846;BME280;34665;51.886;5.436;2023-03-31T00:19:37;100151.38;;;18.92;100.00
48846;BME280;34665;51.886;5.436;2023-03-31T00:22:04;100143.50;;;18.81;100.00
48846;BME280;34665;51.886;5.436;2023-03-31T00:24:30;100143.47;;;18.65;100.00
48846;BME280;34665;51.886;5.436;2023-03-31T00:27:03;100135.72;;;19.41;100.00
48846;BME280;34665;51.886;5.436;2023-03-31T00:29:29;100128.88;;;18.82;100.00
48846;BME280;34665;51.886;5.436;2023-03-31T00:31:55;100128.97;;;19.23;100.00
48846;BME280;34665;51.886;5.436;2023-03-31T00:34:21;100130.72;;;18.55;100.00
48846;BME280;34665;51.886;5.436;2023-03-31T00:36:47;100129.63;;;18.51;100.00
48846;BME280;34665;51.886;5.436;2023-03-31T00:39:13;100118.03;;;18.71;100.00
48846;BME280;34665;51.886;5.436;2023-03-31T00:41:40;100112.09;;;18.74;100.00
48846;BME280;34665;51.886;5.436;2023-03-31T00:46:50;100089.09;;;18.87;100.00
48846;BME280;34665;51.886;5.436;2023-03-31T00:49:21;100096.41;;;18.92;100.00
48846;BME280;34665;51.886;5.436;2023-03-31T00:51:47;100082.19;;;18.23;100.00
48846;BME280;34665;51.886;5.436;2023-03-31T00:54:14;100083.28;;;18.32;100.00
48846;BME280;34665;51.886;5.436;2023-03-31T00:56:41;100076.84;;;20.89;100.00
48846;BME280;34665;51.886;5.436;2023-03-31T00:59:10;100077.31;;;19.90;99.59
48846;BME280;34665;51.886;5.436;2023-03-31T01:01:36;100068.16;;;18.46;100.00
48846;BME280;34665;51.886;5.436;2023-03-31T01:04:03;100063.31;;;18.54;100.00
48846;BME280;34665;51.886;5.436;2023-03-31T01:06:31;100062.25;;;18.81;100.00
48846;BME280;34665;51.886;5.436;2023-03-31T01:08:57;100055.72;;;18.56;100.00
48846;BME280;34665;51.886;5.436;2023-03-31T01:11:24;100051.63;;;18.43;100.00
48846;BME280;34665;51.886;5.436;2023-03-31T01:13:53;100051.31;;;19.84;100.00
48846;BME280;34665;51.886;5.436;2023-03-31T01:16:21;100043.81;;;18.62;100.00
48846;BME280;34665;51.886;5.436;2023-03-31T01:18:46;100034.88;;;18.77;100.00
48846;BME280;34665;51.886;5.436;2023-03-31T01:21:24;100034.06;;;18.56;100.00
48846;BME280;34665;51.886;5.436;2023-03-31T01:29:05;100027.22;;;20.33;100.00
48846;BME280;34665;51.886;5.436;2023-03-31T01:31:53;100012.38;;;18.40;100.00
48846;BME280;34665;51.886;5.436;2023-03-31T01:34:39;99996.63;;;18.16;100.00
48846;BME280;34665;51.886;5.436;2023-03-31T01:47:26;99965.53;;;18.29;100.00
48846;BME280;34665;51.886;5.436;2023-03-31T01:50:00;99960.97;;;19.02;100.00
48846;BME280;34665;51.886;5.436;2023-03-31T01:52:28;99954.72;;;18.66;100.00
48846;BME280;34665;51.886;5.436;2023-03-31T01:55:01;99962.56;;;18.88;100.00
48846;BME280;34665;51.886;5.436;2023-03-31T01:57:34;99944.13;;;19.21;100.00
48846;BME280;34665;51.886;5.436;2023-03-31T02:00:03;99936.03;;;18.59;100.00
48846;BME280;34665;51.886;5.436;2023-03-31T02:02:38;99944.69;;;18.40;100.00
48846;BME280;34665;51.886;5.436;2023-03-31T02:05:25;99935.22;;;18.48;100.00
48846;BME280;34665;51.886;5.436;2023-03-31T02:07:55;99924.69;;;18.26;100.00
48846;BME280;34665;51.886;5.436;2023-03-31T02:10:23;99927.38;;;18.98;100.00
48846;BME280;34665;51.886;5.436;2023-03-31T02:12:50;99915.41;;;18.89;100.00
48846;BME280;34665;51.886;5.436;2023-03-31T02:15:18;99911.09;;;18.88;100.00
48846;BME280;34665;51.886;5.436;2023-03-31T02:17:46;99907.63;;;18.20;100.00
48846;BME280;34665;51.886;5.436;2023-03-31T02:20:14;99900.25;;;17.95;100.00
48846;BME280;34665;51.886;5.436;2023-03-31T02:22:42;99902.09;;;17.84;100.00
48846;BME280;34665;51.886;5.436;2023-03-31T02:25:11;99880.56;;;18.15;100.00
48846;BME280;34665;51.886;5.436;2023-03-31T02:27:39;99881.34;;;18.67;100.00
48846;BME280;34665;51.886;5.436;2023-03-31T02:30:06;99870.47;;;17.95;100.00
48846;BME280;34665;51.886;5.436;2023-03-31T02:32:37;99866.47;;;18.02;100.00
48846;BME280;34665;51.886;5.436;2023-03-31T02:35:04;99859.16;;;18.18;100.00
48846;BME280;34665;51.886;5.436;2023-03-31T02:37:31;99850.53;;;18.27;100.00
48846;BME280;34665;51.886;5.436;2023-03-31T02:39:57;99849.94;;;17.88;100.00
48846;BME280;34665;51.886;5.436;2023-03-31T02:42:23;99830.75;;;18.05;100.00
48846;BME280;34665;51.886;5.436;2023-03-31T02:44:50;99826.66;;;18.70;100.00
48846;BME280;34665;51.886;5.436;2023-03-31T02:47:17;99827.13;;;18.83;100.00
48846;BME280;34665;51.886;5.436;2023-03-31T02:49:44;99810.97;;;18.52;100.00
48846;BME280;34665;51.886;5.436;2023-03-31T02:59:45;99779.38;;;18.16;100.00
48846;BME280;34665;51.886;5.436;2023-03-31T03:07:44;99763.16;;;18.11;100.00
48846;BME280;34665;51.886;5.436;2023-03-31T03:10:29;99759.34;;;17.96;100.00
48846;BME280;34665;51.886;5.436;2023-03-31T03:13:05;99755.47;;;18.54;100.00
48846;BME280;34665;51.886;5.436;2023-03-31T03:15:43;99744.38;;;18.56;100.00
48846;BME280;34665;51.886;5.436;2023-03-31T03:18:10;99751.25;;;18.01;100.00
48846;BME280;34665;51.886;5.436;2023-03-31T03:20:36;99742.81;;;17.98;100.00
48846;BME280;34665;51.886;5.436;2023-03-31T03:23:03;99743.13;;;17.91;100.00
48846;BME280;34665;51.886;5.436;2023-03-31T03:25:28;99737.97;;;18.15;100.00
48846;BME280;34665;51.886;5.436;2023-03-31T03:27:55;99735.53;;;18.03;100.00
48846;BME280;34665;51.886;5.436;2023-03-31T03:30:20;99732.03;;;18.03;100.00
48846;BME280;34665;51.886;5.436;2023-03-31T03:32:46;99706.59;;;17.68;100.00
48846;BME280;34665;51.886;5.436;2023-03-31T03:35:12;99703.31;;;18.17;100.00
48846;BME280;34665;51.886;5.436;2023-03-31T03:37:37;99702.06;;;18.75;100.00
48846;BME280;34665;51.886;5.436;2023-03-31T03:40:03;99682.47;;;18.94;100.00
48846;BME280;34665;51.886;5.436;2023-03-31T03:42:30;99669.91;;;18.58;100.00
48846;BME280;34665;51.886;5.436;2023-03-31T03:44:55;99686.38;;;18.72;100.00
48846;BME280;34665;51.886;5.436;2023-03-31T03:47:20;99688.81;;;19.24;100.00
48846;BME280;34665;51.886;5.436;2023-03-31T03:49:46;99671.53;;;19.10;100.00
48846;BME280;34665;51.886;5.436;2023-03-31T03:52:14;99670.13;;;18.72;100.00
48846;BME280;34665;51.886;5.436;2023-03-31T03:54:39;99662.63;;;18.54;100.00
48846;BME280;34665;51.886;5.436;2023-03-31T03:57:04;99663.81;;;18.16;100.00
48846;BME280;34665;51.886;5.436;2023-03-31T03:59:31;99652.47;;;18.14;100.00
48846;BME280;34665;51.886;5.436;2023-03-31T04:01:57;99635.69;;;18.23;100.00
48846;BME280;34665;51.886;5.436;2023-03-31T04:04:22;99627.84;;;18.16;100.00
48846;BME280;34665;51.886;5.436;2023-03-31T04:06:48;99620.00;;;17.99;100.00
48846;BME280;34665;51.886;5.436;2023-03-31T04:09:13;99598.28;;;18.35;100.00
48846;BME280;34665;51.886;5.436;2023-03-31T04:11:39;99589.69;;;18.17;100.00
48846;BME280;34665;51.886;5.436;2023-03-31T04:14:04;99580.25;;;18.15;100.00
48846;BME280;34665;51.886;5.436;2023-03-31T04:16:29;99573.03;;;17.69;100.00
48846;BME280;34665;51.886;5.436;2023-03-31T04:18:56;99573.00;;;17.89;100.00
48846;BME280;34665;51.886;5.436;2023-03-31T04:21:23;99562.78;;;17.66;100.00
48846;BME280;34665;51.886;5.436;2023-03-31T04:23:52;99557.00;;;18.14;100.00
48846;BME280;34665;51.886;5.436;2023-03-31T04:26:27;99551.13;;;17.75;100.00
48846;BME280;34665;51.886;5.436;2023-03-31T04:28:56;99539.03;;;17.42;100.00
48846;BME280;34665;51.886;5.436;2023-03-31T04:31:24;99541.94;;;17.76;100.00
48846;BME280;34665;51.886;5.436;2023-03-31T04:33:52;99534.63;;;17.82;100.00
48846;BME280;34665;51.886;5.436;2023-03-31T04:36:18;99535.09;;;18.00;100.00
48846;BME280;34665;51.886;5.436;2023-03-31T04:38:44;99524.28;;;18.05;100.00
48846;BME280;34665;51.886;5.436;2023-03-31T04:41:13;99523.34;;;17.54;100.00
48846;BME280;34665;51.886;5.436;2023-03-31T04:43:39;99521.16;;;17.67;100.00
48846;BME280;34665;51.886;5.436;2023-03-31T04:46:05;99515.09;;;18.06;100.00
48846;BME280;34665;51.886;5.436;2023-03-31T04:48:30;99491.00;;;17.13;100.00
48846;BME280;34665;51.886;5.436;2023-03-31T04:50:56;99500.44;;;17.31;100.00
48846;BME280;34665;51.886;5.436;2023-03-31T04:53:21;99498.44;;;18.28;100.00
48846;BME280;34665;51.886;5.436;2023-03-31T04:55:50;99496.75;;;17.87;100.00
48846;BME280;34665;51.886;5.436;2023-03-31T04:58:15;99477.78;;;18.03;100.00
48846;BME280;34665;51.886;5.436;2023-03-31T05:00:41;99480.00;;;17.75;100.00
48846;BME280;34665;51.886;5.436;2023-03-31T05:03:06;99471.28;;;18.44;100.00
48846;BME280;34665;51.886;5.436;2023-03-31T05:05:32;99463.94;;;18.49;100.00
48846;BME280;34665;51.886;5.436;2023-03-31T05:07:58;99464.63;;;17.75;100.00
48846;BME280;34665;51.886;5.436;2023-03-31T05:10:23;99461.25;;;17.99;100.00
48846;BME280;34665;51.886;5.436;2023-03-31T05:12:49;99457.13;;;17.57;100.00
48846;BME280;34665;51.886;5.436;2023-03-31T05:15:14;99447.47;;;17.96;100.00
48846;BME280;34665;51.886;5.436;2023-03-31T05:17:40;99454.00;;;17.89;100.00
48846;BME280;34665;51.886;5.436;2023-03-31T05:20:06;99443.88;;;17.60;100.00
48846;BME280;34665;51.886;5.436;2023-03-31T05:22:36;99428.97;;;17.63;100.00
48846;BME280;34665;51.886;5.436;2023-03-31T05:25:02;99411.97;;;17.52;100.00
48846;BME280;34665;51.886;5.436;2023-03-31T05:27:30;99414.72;;;17.47;100.00
48846;BME280;34665;51.886;5.436;2023-03-31T05:29:55;99416.81;;;17.66;100.00
48846;BME280;34665;51.886;5.436;2023-03-31T05:32:21;99415.91;;;17.81;100.00
48846;BME280;34665;51.886;5.436;2023-03-31T05:34:46;99409.97;;;17.13;100.00
48846;BME280;34665;51.886;5.436;2023-03-31T05:37:12;99400.66;;;17.55;100.00
48846;BME280;34665;51.886;5.436;2023-03-31T05:39:38;99406.56;;;17.52;100.00
48846;BME280;34665;51.886;5.436;2023-03-31T05:42:03;99412.00;;;17.47;100.00
48846;BME280;34665;51.886;5.436;2023-03-31T05:44:30;99425.84;;;17.96;100.00
48846;BME280;34665;51.886;5.436;2023-03-31T05:46:55;99404.69;;;17.53;100.00
48846;BME280;34665;51.886;5.436;2023-03-31T05:49:21;99399.03;;;17.54;100.00
48846;BME280;34665;51.886;5.436;2023-03-31T05:51:46;99378.06;;;17.30;100.00
48846;BME280;34665;51.886;5.436;2023-03-31T05:54:12;99406.56;;;17.52;100.00
48846;BME280;34665;51.886;5.436;2023-03-31T05:56:38;99387.59;;;17.68;100.00
48846;BME280;34665;51.886;5.436;2023-03-31T05:59:03;99394.88;;;16.86;100.00
48846;BME280;34665;51.886;5.436;2023-03-31T06:01:29;99390.81;;;17.04;100.00
48846;BME280;34665;51.886;5.436;2023-03-31T06:03:55;99406.19;;;17.03;100.00
48846;BME280;34665;51.886;5.436;2023-03-31T06:06:21;99398.91;;;16.94;100.00
48846;BME280;34665;51.886;5.436;2023-03-31T06:08:47;99401.34;;;17.11;100.00
48846;BME280;34665;51.886;5.436;2023-03-31T06:11:14;99391.44;;;17.56;100.00
48846;BME280;34665;51.886;5.436;2023-03-31T06:13:40;99395.34;;;17.24;100.00
48846;BME280;34665;51.886;5.436;2023-03-31T06:16:05;99398.63;;;17.16;100.00
48846;BME280;34665;51.886;5.436;2023-03-31T06:18:32;99382.63;;;17.30;100.00
48846;BME280;34665;51.886;5.436;2023-03-31T06:20:57;99377.50;;;17.89;100.00
48846;BME280;34665;51.886;5.436;2023-03-31T06:23:24;99380.44;;;17.42;100.00
48846;BME280;34665;51.886;5.436;2023-03-31T06:25:49;99374.34;;;17.00;100.00
48846;BME280;34665;51.886;5.436;2023-03-31T06:28:15;99372.66;;;17.81;100.00
48846;BME280;34665;51.886;5.436;2023-03-31T06:30:41;99369.88;;;17.46;100.00
48846;BME280;34665;51.886;5.436;2023-03-31T06:33:07;99370.06;;;17.65;100.00
48846;BME280;34665;51.886;5.436;2023-03-31T06:35:36;99366.59;;;17.54;100.00
48846;BME280;34665;51.886;5.436;2023-03-31T06:38:02;99378.53;;;17.43;100.00
48846;BME280;34665;51.886;5.436;2023-03-31T06:40:28;99367.53;;;17.24;100.00
48846;BME280;34665;51.886;5.436;2023-03-31T06:42:54;99368.34;;;17.80;100.00
48846;BME280;34665;51.886;5.436;2023-03-31T06:45:20;99363.31;;;17.62;100.00
48846;BME280;34665;51.886;5.436;2023-03-31T06:47:46;99371.25;;;17.43;100.00
48846;BME280;34665;51.886;5.436;2023-03-31T06:50:11;99372.75;;;16.58;100.00
48846;BME280;34665;51.886;5.436;2023-03-31T06:52:37;99354.56;;;17.76;100.00
48846;BME280;34665;51.886;5.436;2023-03-31T06:55:04;99362.78;;;18.00;100.00
48846;BME280;34665;51.886;5.436;2023-03-31T06:57:30;99351.00;;;18.55;100.00
48846;BME280;34665;51.886;5.436;2023-03-31T06:59:58;99350.44;;;17.89;100.00
48846;BME280;34665;51.886;5.436;2023-03-31T07:02:23;99353.91;;;17.95;100.00
48846;BME280;34665;51.886;5.436;2023-03-31T07:04:48;99344.56;;;18.16;100.00
48846;BME280;34665;51.886;5.436;2023-03-31T07:07:14;99350.03;;;18.11;100.00
48846;BME280;34665;51.886;5.436;2023-03-31T07:09:40;99330.94;;;18.86;100.00
48846;BME280;34665;51.886;5.436;2023-03-31T07:12:05;99330.94;;;18.61;100.00
48846;BME280;34665;51.886;5.436;2023-03-31T07:14:31;99324.69;;;18.31;100.00
48846;BME280;34665;51.886;5.436;2023-03-31T07:16:57;99326.44;;;18.52;100.00
48846;BME280;34665;51.886;5.436;2023-03-31T07:19:22;99330.66;;;19.12;100.00
48846;BME280;34665;51.886;5.436;2023-03-31T07:21:48;99326.13;;;19.51;100.00
48846;BME280;34665;51.886;5.436;2023-03-31T07:24:14;99328.09;;;19.83;100.00
48846;BME280;34665;51.886;5.436;2023-03-31T07:26:39;99328.59;;;20.38;100.00
48846;BME280;34665;51.886;5.436;2023-03-31T07:29:05;99325.41;;;20.02;100.00
48846;BME280;34665;51.886;5.436;2023-03-31T07:31:30;99321.13;;;19.39;100.00
48846;BME280;34665;51.886;5.436;2023-03-31T07:33:56;99313.38;;;19.32;100.00
48846;BME280;34665;51.886;5.436;2023-03-31T07:36:21;99321.69;;;19.16;100.00
48846;BME280;34665;51.886;5.436;2023-03-31T07:38:47;99321.41;;;19.37;100.00
48846;BME280;34665;51.886;5.436;2023-03-31T07:41:16;99323.47;;;19.26;100.00
48846;BME280;34665;51.886;5.436;2023-03-31T07:43:42;99328.94;;;20.17;100.00
48846;BME280;34665;51.886;5.436;2023-03-31T07:46:19;99316.16;;;20.03;100.00
48846;BME280;34665;51.886;5.436;2023-03-31T07:48:45;99305.78;;;19.10;100.00
48846;BME280;34665;51.886;5.436;2023-03-31T07:51:11;99305.44;;;18.92;100.00
48846;BME280;34665;51.886;5.436;2023-03-31T07:53:37;99305.78;;;19.10;100.00
48846;BME280;34665;51.886;5.436;2023-03-31T07:56:03;99297.19;;;19.27;100.00
48846;BME280;34665;51.886;5.436;2023-03-31T07:58:28;99303.28;;;19.38;100.00
48846;BME280;34665;51.886;5.436;2023-03-31T08:00:54;99288.38;;;19.16;100.00
48846;BME280;34665;51.886;5.436;2023-03-31T08:03:20;99280.28;;;18.62;100.00
48846;BME280;34665;51.886;5.436;2023-03-31T08:05:45;99282.22;;;18.56;100.00
48846;BME280;34665;51.886;5.436;2023-03-31T08:08:11;99285.53;;;18.77;100.00
48846;BME280;34665;51.886;5.436;2023-03-31T08:10:36;99281.66;;;18.84;100.00
48846;BME280;34665;51.886;5.436;2023-03-31T08:13:01;99279.03;;;18.78;100.00
48846;BME280;34665;51.886;5.436;2023-03-31T08:15:27;99277.53;;;18.91;100.00
48846;BME280;34665;51.886;5.436;2023-03-31T08:17:52;99274.09;;;18.61;100.00
48846;BME280;34665;51.886;5.436;2023-03-31T08:20:17;99271.78;;;18.98;100.00
48846;BME280;34665;51.886;5.436;2023-03-31T08:22:43;99272.75;;;18.59;100.00
48846;BME280;34665;51.886;5.436;2023-03-31T08:25:08;99271.84;;;18.93;100.00
48846;BME280;34665;51.886;5.436;2023-03-31T08:27:34;99263.44;;;19.14;100.00
48846;BME280;34665;51.886;5.436;2023-03-31T08:30:03;99282.47;;;18.60;100.00
48846;BME280;34665;51.886;5.436;2023-03-31T08:32:30;99275.63;;;19.74;100.00
48846;BME280;34665;51.886;5.436;2023-03-31T08:34:55;99263.81;;;18.83;100.00
48846;BME280;34665;51.886;5.436;2023-03-31T08:37:21;99267.34;;;18.83;100.00
48846;BME280;34665;51.886;5.436;2023-03-31T08:39:46;99259.66;;;18.66;100.00
48846;BME280;34665;51.886;5.436;2023-03-31T08:42:15;99250.53;;;19.30;100.00
48846;BME280;34665;51.886;5.436;2023-03-31T08:44:47;99245.34;;;18.66;100.00
48846;BME280;34665;51.886;5.436;2023-03-31T08:47:18;99282.59;;;18.49;100.00
48846;BME280;34665;51.886;5.436;2023-03-31T08:49:50;99250.00;;;18.60;100.00
48846;BME280;34665;51.886;5.436;2023-03-31T08:52:18;99257.81;;;18.86;100.00
48846;BME280;34665;51.886;5.436;2023-03-31T08:54:51;99262.03;;;18.48;100.00
48846;BME280;34665;51.886;5.436;2023-03-31T08:57:19;99248.38;;;19.08;100.00
48846;BME280;34665;51.886;5.436;2023-03-31T08:59:46;99252.75;;;19.23;100.00
48846;BME280;34665;51.886;5.436;2023-03-31T09:07:11;99239.50;;;18.53;100.00
48846;BME280;34665;51.886;5.436;2023-03-31T09:12:13;99246.66;;;19.88;100.00
48846;BME280;34665;51.886;5.436;2023-03-31T09:17:17;99263.84;;;19.45;100.00
48846;BME280;34665;51.886;5.436;2023-03-31T09:19:48;99257.59;;;19.06;100.00
48846;BME280;34665;51.886;5.436;2023-03-31T09:22:23;99241.44;;;19.92;100.00
48846;BME280;34665;51.886;5.436;2023-03-31T09:25:04;99256.47;;;19.84;100.00
48846;BME280;34665;51.886;5.436;2023-03-31T09:27:31;99225.00;;;19.83;100.00
48846;BME280;34665;51.886;5.436;2023-03-31T09:30:14;99229.25;;;19.56;100.00
48846;BME280;34665;51.886;5.436;2023-03-31T09:32:42;99225.94;;;19.59;100.00
48846;BME280;34665;51.886;5.436;2023-03-31T09:37:37;99232.19;;;19.02;100.00
48846;BME280;34665;51.886;5.436;2023-03-31T09:40:03;99219.06;;;19.81;100.00
48846;BME280;34665;51.886;5.436;2023-03-31T09:42:35;99221.94;;;19.38;100.00
48846;BME280;34665;51.886;5.436;2023-03-31T09:45:01;99210.56;;;19.55;100.00
48846;BME280;34665;51.886;5.436;2023-03-31T09:47:34;99255.75;;;19.59;100.00
48846;BME280;34665;51.886;5.436;2023-03-31T09:50:04;99231.97;;;19.37;100.00
48846;BME280;34665;51.886;5.436;2023-03-31T09:52:31;99217.91;;;19.87;100.00
48846;BME280;34665;51.886;5.436;2023-03-31T09:54:58;99216.75;;;19.94;100.00
48846;BME280;34665;51.886;5.436;2023-03-31T09:57:26;99245.09;;;19.49;100.00
48846;BME280;34665;51.886;5.436;2023-03-31T09:59:52;99209.53;;;19.70;100.00
48846;BME280;34665;51.886;5.436;2023-03-31T10:02:27;99211.38;;;19.88;100.00
48846;BME280;34665;51.886;5.436;2023-03-31T10:04:54;99226.63;;;19.51;100.00
48846;BME280;34665;51.886;5.436;2023-03-31T10:07:20;99210.75;;;20.11;100.00
48846;BME280;34665;51.886;5.436;2023-03-31T10:09:46;99216.72;;;20.55;100.00
48846;BME280;34665;51.886;5.436;2023-03-31T10:12:15;99215.41;;;20.66;100.00
48846;BME280;34665;51.886;5.436;2023-03-31T10:14:45;99238.94;;;19.96;100.00
48846;BME280;34665;51.886;5.436;2023-03-31T10:17:15;99252.81;;;20.41;100.00
48846;BME280;34665;51.886;5.436;2023-03-31T10:19:51;99193.97;;;20.37;100.00
48846;BME280;34665;51.886;5.436;2023-03-31T10:24:46;99201.41;;;20.73;100.00
48846;BME280;34665;51.886;5.436;2023-03-31T10:27:22;99186.75;;;20.60;100.00
48846;BME280;34665;51.886;5.436;2023-03-31T10:29:52;99191.56;;;20.63;100.00
48846;BME280;34665;51.886;5.436;2023-03-31T10:32:23;99181.78;;;20.90;100.00
48846;BME280;34665;51.886;5.436;2023-03-31T10:34:53;99181.06;;;20.98;100.00
48846;BME280;34665;51.886;5.436;2023-03-31T10:37:20;99180.22;;;21.12;100.00
48846;BME280;34665;51.886;5.436;2023-03-31T10:39:47;99178.81;;;21.14;100.00
48846;BME280;34665;51.886;5.436;2023-03-31T10:42:22;99186.00;;;21.78;100.00
48846;BME280;34665;51.886;5.436;2023-03-31T10:44:49;99177.50;;;21.12;100.00
48846;BME280;34665;51.886;5.436;2023-03-31T10:47:17;99193.00;;;23.80;94.14
48846;BME280;34665;51.886;5.436;2023-03-31T10:49:43;99187.44;;;20.94;100.00
48846;BME280;34665;51.886;5.436;2023-03-31T10:52:16;99165.41;;;20.67;100.00
48846;BME280;34665;51.886;5.436;2023-03-31T10:54:46;99187.97;;;20.54;100.00
48846;BME280;34665;51.886;5.436;2023-03-31T10:57:12;99178.69;;;20.27;100.00
48846;BME280;34665;51.886;5.436;2023-03-31T11:10:33;99173.69;;;20.20;100.00
48846;BME280;34665;51.886;5.436;2023-03-31T11:13:14;99158.25;;;19.87;100.00
48846;BME280;34665;51.886;5.436;2023-03-31T11:15:51;99152.03;;;20.01;100.00
48846;BME280;34665;51.886;5.436;2023-03-31T11:18:26;99160.56;;;19.94;100.00
48846;BME280;34665;51.886;5.436;2023-03-31T11:21:12;99164.38;;;19.93;100.00
48846;BME280;34665;51.886;5.436;2023-03-31T11:26:22;99139.03;;;19.84;100.00
48846;BME280;34665;51.886;5.436;2023-03-31T11:31:32;99133.44;;;19.94;100.00
48846;BME280;34665;51.886;5.436;2023-03-31T11:34:25;99129.25;;;20.30;100.00
48846;BME280;34665;51.886;5.436;2023-03-31T11:42:13;99179.88;;;19.92;100.00
48846;BME280;34665;51.886;5.436;2023-03-31T11:44:41;99130.22;;;20.06;100.00
48846;BME280;34665;51.886;5.436;2023-03-31T11:47:16;99118.69;;;20.28;100.00
48846;BME280;34665;51.886;5.436;2023-03-31T11:49:53;99128.22;;;20.12;100.00
48846;BME280;34665;51.886;5.436;2023-03-31T11:52:21;99159.91;;;20.30;100.00
48846;BME280;34665;51.886;5.436;2023-03-31T11:55:04;99132.44;;;20.04;100.00
48846;BME280;34665;51.886;5.436;2023-03-31T12:00:05;99120.47;;;20.61;96.43
48846;BME280;34665;51.886;5.436;2023-03-31T12:05:02;99117.28;;;20.03;97.43
48846;BME280;34665;51.886;5.436;2023-03-31T12:07:30;99123.81;;;20.30;96.20
48846;BME280;34665;51.886;5.436;2023-03-31T12:09:57;99125.78;;;20.66;95.19
48846;BME280;34665;51.886;5.436;2023-03-31T12:12:34;99107.38;;;20.63;100.00
48846;BME280;34665;51.886;5.436;2023-03-31T12:15:12;99108.31;;;20.30;100.00
48846;BME280;34665;51.886;5.436;2023-03-31T12:17:38;99101.59;;;20.28;100.00
48846;BME280;34665;51.886;5.436;2023-03-31T12:20:11;99096.44;;;19.84;100.00
48846;BME280;34665;51.886;5.436;2023-03-31T12:22:38;99096.38;;;19.56;100.00
48846;BME280;34665;51.886;5.436;2023-03-31T12:25:10;99099.03;;;19.61;100.00
48846;BME280;34665;51.886;5.436;2023-03-31T12:27:40;99097.72;;;19.73;100.00
48846;BME280;34665;51.886;5.436;2023-03-31T12:30:11;99109.00;;;19.33;100.00
48846;BME280;34665;51.886;5.436;2023-03-31T12:32:42;99106.41;;;19.42;100.00
48846;BME280;34665;51.886;5.436;2023-03-31T12:35:20;99116.41;;;19.27;100.00
48846;BME280;34665;51.886;5.436;2023-03-31T12:40:16;99095.03;;;20.29;100.00
48846;BME280;34665;51.886;5.436;2023-03-31T12:42:54;99095.63;;;20.54;100.00
48846;BME280;34665;51.886;5.436;2023-03-31T12:50:29;99084.66;;;20.96;100.00
48846;BME280;34665;51.886;5.436;2023-03-31T12:53:03;99075.34;;;21.11;100.00
48846;BME280;34665;51.886;5.436;2023-03-31T12:58:44;99065.22;;;21.25;100.00
48846;BME280;34665;51.886;5.436;2023-03-31T13:05:58;99056.41;;;21.51;100.00
48846;BME280;34665;51.886;5.436;2023-03-31T13:11:08;99046.91;;;20.20;100.00
48846;BME280;34665;51.886;5.436;2023-03-31T13:13:34;99045.25;;;20.47;100.00
48846;BME280;34665;51.886;5.436;2023-03-31T13:16:00;99040.00;;;20.14;100.00
48846;BME280;34665;51.886;5.436;2023-03-31T13:18:26;99043.06;;;20.72;100.00
48846;BME280;34665;51.886;5.436;2023-03-31T13:20:59;99061.00;;;20.09;100.00
48846;BME280;34665;51.886;5.436;2023-03-31T13:23:25;99049.31;;;20.36;100.00
48846;BME280;34665;51.886;5.436;2023-03-31T13:25:53;99052.31;;;19.51;100.00
48846;BME280;34665;51.886;5.436;2023-03-31T13:28:23;99043.47;;;19.45;100.00
48846;BME280;34665;51.886;5.436;2023-03-31T13:33:38;99035.22;;;25.68;86.65
48846;BME280;34665;51.886;5.436;2023-03-31T13:42:01;99035.75;;;21.50;100.00
48846;BME280;34665;51.886;5.436;2023-03-31T13:52:09;99035.81;;;20.82;100.00
48846;BME280;34665;51.886;5.436;2023-03-31T14:02:41;99034.16;;;21.89;100.00
48846;BME280;34665;51.886;5.436;2023-03-31T14:07:43;99045.56;;;21.91;100.00
48846;BME280;34665;51.886;5.436;2023-03-31T14:10:29;99078.50;;;21.58;100.00
48846;BME280;34665;51.886;5.436;2023-03-31T14:15:29;99074.66;;;20.82;100.00
48846;BME280;34665;51.886;5.436;2023-03-31T14:17:55;99020.00;;;21.06;100.00
48846;BME280;34665;51.886;5.436;2023-03-31T14:20:34;99019.25;;;21.15;100.00
48846;BME280;34665;51.886;5.436;2023-03-31T14:23:06;99015.56;;;21.11;100.00
48846;BME280;34665;51.886;5.436;2023-03-31T14:33:16;99005.94;;;21.36;100.00
48846;BME280;34665;51.886;5.436;2023-03-31T14:35:51;99013.78;;;20.83;100.00
48846;BME280;34665;51.886;5.436;2023-03-31T14:38:20;99013.31;;;20.30;100.00
48846;BME280;34665;51.886;5.436;2023-03-31T14:40:47;98993.53;;;20.89;100.00
48846;BME280;34665;51.886;5.436;2023-03-31T14:43:18;98982.19;;;20.73;100.00
48846;BME280;34665;51.886;5.436;2023-03-31T14:45:44;98993.06;;;20.96;100.00
48846;BME280;34665;51.886;5.436;2023-03-31T14:48:10;98994.38;;;20.99;100.00
48846;BME280;34665;51.886;5.436;2023-03-31T14:50:42;98995.81;;;21.28;100.00
48846;BME280;34665;51.886;5.436;2023-03-31T14:53:14;98988.44;;;21.60;100.00
48846;BME280;34665;51.886;5.436;2023-03-31T14:55:40;99005.47;;;21.43;100.00
48846;BME280;34665;51.886;5.436;2023-03-31T14:58:07;99009.19;;;20.70;100.00
48846;BME280;34665;51.886;5.436;2023-03-31T15:00:35;98992.81;;;20.61;100.00
48846;BME280;34665;51.886;5.436;2023-03-31T15:03:04;99002.81;;;20.74;100.00